createdAt,value
2018-12-27T00:00:11.614Z,4.50
2018-12-27T00:03:00.119Z,4.50
2018-12-27T00:05:49.302Z,4.50
2018-12-27T00:08:38.279Z,4.50
2018-12-27T00:11:27.128Z,4.50
2018-12-27T00:14:15.708Z,4.40
2018-12-27T00:17:04.947Z,4.40
2018-12-27T00:19:53.808Z,4.50
2018-12-27T00:22:42.799Z,4.40
2018-12-27T00:25:32.069Z,4.50
2018-12-27T00:28:20.931Z,4.40
2018-12-27T00:31:09.898Z,4.40
2018-12-27T00:33:58.799Z,4.40
2018-12-27T00:36:47.592Z,4.40
2018-12-27T00:39:36.669Z,4.40
2018-12-27T00:42:25.350Z,4.40
2018-12-27T00:45:14.079Z,4.40
2018-12-27T00:48:03.175Z,4.40
2018-12-27T00:50:52.664Z,4.40
2018-12-27T00:53:22.833Z,4.40
2018-12-27T00:56:12.302Z,4.40
2018-12-27T00:59:00.969Z,4.40
2018-12-27T01:01:50.180Z,4.40
2018-12-27T01:04:39.353Z,4.50
2018-12-27T01:07:28.632Z,4.50
2018-12-27T01:10:17.754Z,4.60
2018-12-27T01:13:06.571Z,4.60
2018-12-27T01:15:55.528Z,4.60
2018-12-27T01:18:44.578Z,4.60
2018-12-27T01:21:34.018Z,4.60
2018-12-27T01:24:23.492Z,4.50
2018-12-27T01:27:12.517Z,4.50
2018-12-27T01:30:01.632Z,4.50
2018-12-27T01:32:50.473Z,4.50
2018-12-27T01:35:40.255Z,4.50
2018-12-27T01:38:29.632Z,4.50
2018-12-27T01:41:18.340Z,4.60
2018-12-27T01:44:07.416Z,4.60
2018-12-27T01:46:56.109Z,4.60
2018-12-27T01:49:45.281Z,4.60
2018-12-27T01:52:34.696Z,4.60
2018-12-27T01:55:24.131Z,4.60
2018-12-27T01:58:13.657Z,4.60
2018-12-27T02:01:02.503Z,4.60
2018-12-27T02:03:51.952Z,4.60
2018-12-27T02:06:41.166Z,4.60
2018-12-27T02:09:30.276Z,4.60
2018-12-27T02:12:19.664Z,4.60
2018-12-27T02:15:09.048Z,4.60
2018-12-27T02:17:57.785Z,4.60
2018-12-27T02:20:48.112Z,4.60
2018-12-27T02:23:24.779Z,4.60
2018-12-27T02:26:14.433Z,4.60
2018-12-27T02:29:03.489Z,4.50
2018-12-27T02:31:52.658Z,4.50
2018-12-27T02:34:29.176Z,4.50
2018-12-27T02:37:18.784Z,4.50
2018-12-27T02:40:07.676Z,4.60
2018-12-27T02:42:56.344Z,4.50
2018-12-27T02:45:45.285Z,4.50
2018-12-27T02:48:34.423Z,4.50
2018-12-27T02:51:23.946Z,4.50
2018-12-27T02:54:13.397Z,4.50
2018-12-27T02:57:02.871Z,4.40
2018-12-27T02:59:52.155Z,4.50
2018-12-27T03:02:41.329Z,4.40
2018-12-27T03:05:30.364Z,4.40
2018-12-27T03:08:20.246Z,4.40
2018-12-27T03:11:09.421Z,4.40
2018-12-27T03:13:58.434Z,4.40
2018-12-27T03:16:28.681Z,4.30
2018-12-27T03:19:18.329Z,4.30
2018-12-27T03:22:07.453Z,4.30
2018-12-27T03:24:56.930Z,4.20
2018-12-27T03:27:42.360Z,4.20
2018-12-27T03:30:33.042Z,4.20
2018-12-27T03:33:21.944Z,4.20
2018-12-27T03:36:11.621Z,4.20
2018-12-27T03:39:00.692Z,4.10
2018-12-27T03:41:49.492Z,4.10
2018-12-27T03:44:38.669Z,4.10
2018-12-27T03:47:28.711Z,4.10
2018-12-27T03:50:17.707Z,4.10
2018-12-27T03:53:06.430Z,4.10
2018-12-27T03:55:56.415Z,4.10
2018-12-27T03:58:36.197Z,4.00
2018-12-27T04:01:25.660Z,4.00
2018-12-27T04:04:14.961Z,3.90
2018-12-27T04:07:04.323Z,3.90
2018-12-27T04:09:53.486Z,3.90
2018-12-27T04:12:43.123Z,3.90
2018-12-27T04:15:32.271Z,3.90
2018-12-27T04:18:21.478Z,3.90
2018-12-27T04:21:10.253Z,3.90
2018-12-27T04:23:58.831Z,3.90
2018-12-27T04:26:47.511Z,3.90
2018-12-27T04:29:36.287Z,3.90
2018-12-27T04:32:25.676Z,3.90
2018-12-27T04:34:56.221Z,3.90
2018-12-27T04:37:44.931Z,3.90
2018-12-27T04:40:33.942Z,3.90
2018-12-27T04:43:23.371Z,3.90
2018-12-27T04:46:12.883Z,3.90
2018-12-27T04:49:01.559Z,3.90
2018-12-27T04:51:50.150Z,3.90
2018-12-27T04:54:38.906Z,3.90
2018-12-27T04:57:27.890Z,3.90
2018-12-27T05:00:16.739Z,3.80
2018-12-27T05:03:05.680Z,3.80
2018-12-27T05:05:54.650Z,3.80
2018-12-27T05:08:43.632Z,3.80
2018-12-27T05:11:32.877Z,3.90
2018-12-27T05:14:22.169Z,3.80
2018-12-27T05:17:11.069Z,3.80
2018-12-27T05:20:00.237Z,3.80
2018-12-27T05:22:48.823Z,3.80
2018-12-27T05:25:37.788Z,3.80
2018-12-27T05:28:11.177Z,3.80
2018-12-27T05:31:00.570Z,3.80
2018-12-27T05:33:48.854Z,3.80
2018-12-27T05:36:38.125Z,3.80
2018-12-27T05:39:27.680Z,3.80
2018-12-27T05:42:16.370Z,3.80
2018-12-27T05:45:05.956Z,3.80
2018-12-27T05:47:54.728Z,3.80
2018-12-27T05:50:43.891Z,3.80
2018-12-27T05:53:29.443Z,3.70
2018-12-27T05:56:18.595Z,3.70
2018-12-27T05:59:09.124Z,3.70
2018-12-27T06:01:58.554Z,3.60
2018-12-27T06:04:47.778Z,3.60
2018-12-27T06:07:36.436Z,3.60
2018-12-27T06:10:24.934Z,3.60
2018-12-27T06:13:13.503Z,3.60
2018-12-27T06:16:02.170Z,3.60
2018-12-27T06:18:51.036Z,3.60
2018-12-27T06:21:40.021Z,3.60
2018-12-27T06:24:29.080Z,3.50
2018-12-27T06:27:18.156Z,3.60
2018-12-27T06:30:07.618Z,3.50
2018-12-27T06:32:56.933Z,3.60
2018-12-27T06:35:27.409Z,3.50
2018-12-27T06:38:16.521Z,3.60
2018-12-27T06:41:05.175Z,3.60
2018-12-27T06:43:54.098Z,3.50
2018-12-27T06:46:42.840Z,3.50
2018-12-27T06:49:32.406Z,3.50
2018-12-27T06:52:21.677Z,3.50
2018-12-27T06:55:10.796Z,3.40
2018-12-27T06:58:00.221Z,3.40
2018-12-27T07:00:50.028Z,3.40
2018-12-27T07:03:20.249Z,3.40
2018-12-27T07:06:09.089Z,3.50
2018-12-27T07:08:58.877Z,3.50
2018-12-27T07:11:29.149Z,3.50
2018-12-27T07:13:59.312Z,3.40
2018-12-27T07:16:29.577Z,3.40
2018-12-27T07:18:59.974Z,3.40
2018-12-27T07:21:48.629Z,3.40
2018-12-27T07:24:37.768Z,3.40
2018-12-27T07:27:27.008Z,3.40
2018-12-27T07:30:16.300Z,3.50
2018-12-27T07:33:05.262Z,3.50
2018-12-27T07:35:54.680Z,3.50
2018-12-27T07:38:43.654Z,3.50
2018-12-27T07:41:13.854Z,3.50
2018-12-27T07:43:44.042Z,3.50
2018-12-27T07:46:14.346Z,3.60
2018-12-27T07:48:44.777Z,3.60
2018-12-27T07:51:34.420Z,3.60
2018-12-27T07:54:24.272Z,3.60
2018-12-27T07:57:13.847Z,3.60
2018-12-27T08:00:02.360Z,3.60
2018-12-27T08:02:32.600Z,3.70
2018-12-27T08:05:04.080Z,3.70
2018-12-27T08:07:35.302Z,3.70
2018-12-27T08:10:06.045Z,3.80
2018-12-27T08:12:36.696Z,3.80
2018-12-27T08:15:07.420Z,3.90
2018-12-27T08:17:37.650Z,3.90
2018-12-27T08:20:08.553Z,3.80
2018-12-27T08:22:39.178Z,3.90
2018-12-27T08:25:09.543Z,3.90
2018-12-27T08:27:39.930Z,4.00
2018-12-27T08:30:09.977Z,4.00
2018-12-27T08:32:40.569Z,3.90
2018-12-27T08:35:11.683Z,4.00
2018-12-27T08:37:42.321Z,4.00
2018-12-27T08:40:12.817Z,4.10
2018-12-27T08:42:43.157Z,4.10
2018-12-27T08:45:13.625Z,4.10
2018-12-27T08:47:43.863Z,4.10
2018-12-27T08:50:14.394Z,4.10
2018-12-27T08:52:44.495Z,4.20
2018-12-27T08:55:14.803Z,4.20
2018-12-27T08:57:45.081Z,4.20
2018-12-27T09:00:15.624Z,4.20
2018-12-27T09:02:45.798Z,4.20
2018-12-27T09:05:19.068Z,4.20
2018-12-27T09:07:47.869Z,4.30
2018-12-27T09:10:17.874Z,4.30
2018-12-27T09:12:47.946Z,4.40
2018-12-27T09:15:18.143Z,4.30
2018-12-27T09:17:48.373Z,4.40
2018-12-27T09:20:18.544Z,4.40
2018-12-27T09:22:48.915Z,4.40
2018-12-27T09:25:19.027Z,4.50
2018-12-27T09:27:49.121Z,4.50
2018-12-27T09:30:19.253Z,4.60
2018-12-27T09:32:49.384Z,4.60
2018-12-27T09:35:26.070Z,4.60
2018-12-27T09:37:51.482Z,4.70
2018-12-27T09:40:21.864Z,4.70
2018-12-27T09:42:52.035Z,4.80
2018-12-27T09:45:22.269Z,4.80
2018-12-27T09:47:52.342Z,4.90
2018-12-27T09:50:22.532Z,4.90
2018-12-27T09:52:52.724Z,5.10
2018-12-27T09:55:23.261Z,5.00
2018-12-27T09:57:53.241Z,5.00
2018-12-27T10:00:23.226Z,5.10
2018-12-27T10:02:53.168Z,5.10
2018-12-27T10:05:23.246Z,5.20
2018-12-27T10:07:57.499Z,5.20
2018-12-27T10:10:25.036Z,5.30
2018-12-27T10:12:55.249Z,5.40
2018-12-27T10:15:25.367Z,5.40
2018-12-27T10:17:55.669Z,5.40
2018-12-27T10:20:25.949Z,5.40
2018-12-27T10:22:56.239Z,5.40
2018-12-27T10:25:26.462Z,5.40
2018-12-27T10:27:56.683Z,5.40
2018-12-27T10:30:26.868Z,5.60
2018-12-27T10:32:56.977Z,5.50
2018-12-27T10:35:27.383Z,5.40
2018-12-27T10:37:57.731Z,5.40
2018-12-27T10:40:27.857Z,5.40
2018-12-27T10:42:58.048Z,5.40
2018-12-27T10:45:28.445Z,5.50
2018-12-27T10:47:58.426Z,5.50
2018-12-27T10:50:28.432Z,5.60
2018-12-27T10:52:58.394Z,5.70
2018-12-27T10:55:28.520Z,5.70
2018-12-27T10:57:58.641Z,5.70
2018-12-27T11:00:28.812Z,5.80
2018-12-27T11:02:59.261Z,5.70
2018-12-27T11:05:29.306Z,5.80
2018-12-27T11:07:59.362Z,5.80
2018-12-27T11:10:30.580Z,5.90
2018-12-27T11:13:00.806Z,5.90
2018-12-27T11:15:30.974Z,6.00
2018-12-27T11:18:01.073Z,6.10
2018-12-27T11:20:31.704Z,6.10
2018-12-27T11:23:01.910Z,6.20
2018-12-27T11:25:32.159Z,6.30
2018-12-27T11:28:02.262Z,6.40
2018-12-27T11:30:32.608Z,6.50
2018-12-27T11:33:02.801Z,6.60
2018-12-27T11:35:35.763Z,6.70
2018-12-27T11:38:06.002Z,6.70
2018-12-27T11:40:55.284Z,6.70
2018-12-27T11:43:44.562Z,6.70
2018-12-27T11:46:33.847Z,6.70
2018-12-27T11:49:23.022Z,6.70
2018-12-27T11:52:11.970Z,6.70
2018-12-27T11:55:00.463Z,6.80
2018-12-27T11:57:49.649Z,6.80
2018-12-27T12:00:23.008Z,6.80
2018-12-27T12:03:12.551Z,6.80
2018-12-27T12:06:03.341Z,6.90
2018-12-27T12:08:52.437Z,6.90
2018-12-27T12:11:41.679Z,7.10
2018-12-27T12:14:30.701Z,7.00
2018-12-27T12:17:19.370Z,7.10
2018-12-27T12:20:08.006Z,7.20
2018-12-27T12:22:56.926Z,7.30
2018-12-27T12:25:46.390Z,7.40
2018-12-27T12:28:35.462Z,7.50
2018-12-27T12:31:24.346Z,7.50
2018-12-27T12:34:13.675Z,7.60
2018-12-27T12:37:02.703Z,7.50
2018-12-27T12:39:51.883Z,7.50
2018-12-27T12:42:40.516Z,7.60
2018-12-27T12:45:29.542Z,7.60
2018-12-27T12:48:19.105Z,7.60
2018-12-27T12:50:58.712Z,7.60
2018-12-27T12:53:47.708Z,7.60
2018-12-27T12:56:36.443Z,7.60
2018-12-27T12:59:25.510Z,7.60
2018-12-27T13:02:14.584Z,7.60
2018-12-27T13:05:03.639Z,7.60
2018-12-27T13:07:53.179Z,7.60
2018-12-27T13:10:42.069Z,7.60
2018-12-27T13:13:31.050Z,7.60
2018-12-27T13:16:19.635Z,7.60
2018-12-27T13:19:08.595Z,7.60
2018-12-27T13:21:57.943Z,7.70
2018-12-27T13:24:47.257Z,7.60
2018-12-27T13:27:36.059Z,7.60
2018-12-27T13:30:25.298Z,7.60
2018-12-27T13:33:14.467Z,7.60
2018-12-27T13:36:03.608Z,7.60
2018-12-27T13:38:53.187Z,7.60
2018-12-27T13:41:41.870Z,7.60
2018-12-27T13:44:31.671Z,7.60
2018-12-27T13:47:21.382Z,7.50
2018-12-27T13:50:10.167Z,7.50
2018-12-27T13:52:59.744Z,7.60
2018-12-27T13:55:48.528Z,7.50
2018-12-27T13:58:37.258Z,7.50
2018-12-27T14:01:26.329Z,7.50
2018-12-27T14:04:15.351Z,7.50
2018-12-27T14:06:45.386Z,7.40
2018-12-27T14:09:33.905Z,7.40
2018-12-27T14:12:23.018Z,7.40
2018-12-27T14:15:11.856Z,7.40
2018-12-27T14:18:00.485Z,7.30
2018-12-27T14:20:49.852Z,7.30
2018-12-27T14:23:39.051Z,7.30
2018-12-27T14:26:27.802Z,7.30
2018-12-27T14:29:17.015Z,7.30
2018-12-27T14:32:05.526Z,7.30
2018-12-27T14:34:54.701Z,7.30
2018-12-27T14:37:43.854Z,7.30
2018-12-27T14:40:13.911Z,7.30
2018-12-27T14:43:03.213Z,7.30
2018-12-27T14:45:52.637Z,7.30
2018-12-27T14:48:43.612Z,7.30
2018-12-27T14:51:32.886Z,7.30
2018-12-27T14:54:22.158Z,7.30
2018-12-27T14:57:11.293Z,7.20
2018-12-27T15:00:00.940Z,7.20
2018-12-27T15:02:50.162Z,7.20
2018-12-27T15:05:39.045Z,7.20
2018-12-27T15:08:27.810Z,7.20
2018-12-27T15:11:10.226Z,7.10
2018-12-27T15:13:59.125Z,7.10
2018-12-27T15:16:48.093Z,7.00
2018-12-27T15:19:37.309Z,7.00
2018-12-27T15:22:07.259Z,6.90
2018-12-27T15:24:56.461Z,6.90
2018-12-27T15:27:46.208Z,6.80
2018-12-27T15:30:35.654Z,6.80
2018-12-27T15:33:25.617Z,6.80
2018-12-27T15:36:14.761Z,6.80
2018-12-27T15:39:04.497Z,6.70
2018-12-27T15:41:53.761Z,6.70
2018-12-27T15:44:42.774Z,6.60
2018-12-27T15:47:31.004Z,6.60
2018-12-27T15:50:20.423Z,6.60
2018-12-27T15:53:09.748Z,6.50
2018-12-27T15:55:39.894Z,6.50
2018-12-27T15:58:28.748Z,6.50
2018-12-27T16:01:17.460Z,6.50
2018-12-27T16:04:06.790Z,6.50
2018-12-27T16:07:01.722Z,6.50
2018-12-27T16:09:46.854Z,6.40
2018-12-27T16:12:35.230Z,6.40
2018-12-27T16:15:24.712Z,6.40
2018-12-27T16:18:13.612Z,6.40
2018-12-27T16:21:02.240Z,6.40
2018-12-27T16:23:50.999Z,6.40
2018-12-27T16:26:40.323Z,6.40
2018-12-27T16:29:30.184Z,6.40
2018-12-27T16:32:18.961Z,6.30
2018-12-27T16:35:08.372Z,6.30
2018-12-27T16:37:57.676Z,6.30
2018-12-27T16:40:47.078Z,6.30
2018-12-27T16:43:36.798Z,6.30
2018-12-27T16:46:25.280Z,6.30
2018-12-27T16:49:14.679Z,6.30
2018-12-27T16:52:03.652Z,6.30
2018-12-27T16:54:53.158Z,6.20
2018-12-27T16:57:42.546Z,6.20
2018-12-27T17:00:31.423Z,6.10
2018-12-27T17:03:20.941Z,6.10
2018-12-27T17:06:10.264Z,6.00
2018-12-27T17:08:59.649Z,6.20
2018-12-27T17:11:48.916Z,6.20
2018-12-27T17:14:38.026Z,6.20
2018-12-27T17:17:26.778Z,6.20
2018-12-27T17:20:15.725Z,6.20
2018-12-27T17:22:45.797Z,6.20
2018-12-27T17:25:35.277Z,6.20
2018-12-27T17:28:24.500Z,6.20
2018-12-27T17:31:13.901Z,6.20
2018-12-27T17:34:02.771Z,6.20
2018-12-27T17:36:52.297Z,6.10
2018-12-27T17:39:41.687Z,6.10
2018-12-27T17:42:30.903Z,6.10
2018-12-27T17:45:19.742Z,6.10
2018-12-27T17:47:53.090Z,6.10
2018-12-27T17:50:42.453Z,6.00
2018-12-27T17:53:31.813Z,6.00
2018-12-27T17:56:21.111Z,6.10
2018-12-27T17:59:10.104Z,6.00
2018-12-27T18:01:59.913Z,6.00
2018-12-27T18:04:49.008Z,6.00
2018-12-27T18:07:37.639Z,6.00
2018-12-27T18:10:26.805Z,5.90
2018-12-27T18:13:16.338Z,5.90
2018-12-27T18:16:05.243Z,5.90
2018-12-27T18:18:54.527Z,5.90
2018-12-27T18:21:43.330Z,5.90
2018-12-27T18:24:32.480Z,5.90
2018-12-27T18:27:21.709Z,6.00
2018-12-27T18:30:10.896Z,5.90
2018-12-27T18:32:59.954Z,5.90
2018-12-27T18:35:48.807Z,5.90
2018-12-27T18:38:37.850Z,5.90
2018-12-27T18:41:26.855Z,5.90
2018-12-27T18:44:15.598Z,6.00
2018-12-27T18:47:04.737Z,6.00
2018-12-27T18:49:53.749Z,6.00
2018-12-27T18:52:43.027Z,6.00
2018-12-27T18:55:32.639Z,6.10
2018-12-27T18:58:22.309Z,6.10
2018-12-27T19:01:11.367Z,6.10
2018-12-27T19:04:00.750Z,6.10
2018-12-27T19:06:49.281Z,6.10
2018-12-27T19:09:38.339Z,6.20
2018-12-27T19:13:20.202Z,6.20
2018-12-27T19:16:08.683Z,6.20
2018-12-27T19:18:57.258Z,6.20
2018-12-27T19:22:12.604Z,6.20
2018-12-27T19:25:01.895Z,6.20
2018-12-27T19:27:50.589Z,6.20
2018-12-27T19:30:39.777Z,6.20
2018-12-27T19:33:29.535Z,6.10
2018-12-27T19:36:18.340Z,6.10
2018-12-27T19:39:08.058Z,6.10
2018-12-27T19:41:57.354Z,6.10
2018-12-27T19:44:46.543Z,6.10
2018-12-27T19:47:35.217Z,6.10
2018-12-27T19:50:24.183Z,6.10
2018-12-27T19:53:13.029Z,6.10
2018-12-27T19:56:02.258Z,6.10
2018-12-27T19:58:50.680Z,6.10
2018-12-27T20:01:21.018Z,6.10
2018-12-27T20:04:10.307Z,6.10
2018-12-27T20:06:59.897Z,6.10
2018-12-27T20:09:48.764Z,6.10
2018-12-27T20:12:38.103Z,6.10
2018-12-27T20:15:28.033Z,6.10
2018-12-27T20:18:16.793Z,6.10
2018-12-27T20:21:06.558Z,6.10
2018-12-27T20:23:55.975Z,6.10
2018-12-27T20:26:44.826Z,6.20
2018-12-27T20:29:34.227Z,6.20
2018-12-27T20:32:23.754Z,6.20
2018-12-27T20:35:12.891Z,6.20
2018-12-27T20:38:06.608Z,6.10
2018-12-27T20:40:52.402Z,6.10
2018-12-27T20:43:42.008Z,6.00
2018-12-27T20:46:31.499Z,6.00
2018-12-27T20:49:20.487Z,5.90
2018-12-27T20:52:09.056Z,5.90
2018-12-27T20:54:58.390Z,5.90
2018-12-27T20:57:48.098Z,5.90
2018-12-27T21:00:37.570Z,5.90
2018-12-27T21:03:26.715Z,5.90
2018-12-27T21:06:15.211Z,5.80
2018-12-27T21:09:04.307Z,5.80
2018-12-27T21:11:53.764Z,5.80
2018-12-27T21:14:42.822Z,5.80
2018-12-27T21:17:31.847Z,5.90
2018-12-27T21:20:06.471Z,5.90
2018-12-27T21:22:55.907Z,5.90
2018-12-27T21:25:45.424Z,5.90
2018-12-27T21:28:35.087Z,5.90
2018-12-27T21:31:24.626Z,5.90
2018-12-27T21:34:14.531Z,5.90
2018-12-27T21:37:04.023Z,5.90
2018-12-27T21:39:53.140Z,6.00
2018-12-27T21:42:42.885Z,6.00
2018-12-27T21:45:32.649Z,5.90
2018-12-27T21:48:22.071Z,5.90
2018-12-27T21:51:11.742Z,6.00
2018-12-27T21:54:01.356Z,5.90
2018-12-27T21:56:50.662Z,5.90
2018-12-27T21:59:39.645Z,6.00
2018-12-27T22:02:28.907Z,6.00
2018-12-27T22:05:18.381Z,6.00
2018-12-27T22:08:07.566Z,6.00
2018-12-27T22:10:56.255Z,6.00
2018-12-27T22:13:26.398Z,6.00
2018-12-27T22:16:15.797Z,6.00
2018-12-27T22:19:05.077Z,6.00
2018-12-27T22:21:54.317Z,6.00
2018-12-27T22:24:43.186Z,5.90
2018-12-27T22:27:32.256Z,5.80
2018-12-27T22:30:21.832Z,5.70
2018-12-27T22:33:11.017Z,5.70
2018-12-27T22:36:00.203Z,5.70
2018-12-27T22:38:49.006Z,5.70
2018-12-27T22:41:37.966Z,5.70
2018-12-27T22:44:27.061Z,5.70
2018-12-27T22:47:15.883Z,5.70
2018-12-27T22:50:05.073Z,5.60
2018-12-27T22:52:54.540Z,5.70
2018-12-27T22:55:25.042Z,5.60
2018-12-27T22:58:14.001Z,5.60
2018-12-27T23:01:04.076Z,5.60
2018-12-27T23:03:53.257Z,5.60
2018-12-27T23:06:42.345Z,5.60
2018-12-27T23:09:31.863Z,5.60
2018-12-27T23:12:21.276Z,5.60
2018-12-27T23:15:10.485Z,5.60
2018-12-27T23:17:59.441Z,5.60
2018-12-27T23:20:48.386Z,5.60
2018-12-27T23:23:37.112Z,5.50
2018-12-27T23:26:26.291Z,5.50
2018-12-27T23:29:15.926Z,5.50
2018-12-27T23:31:48.003Z,5.40
2018-12-27T23:34:37.221Z,5.40
2018-12-27T23:37:26.782Z,5.40
2018-12-27T23:40:16.325Z,5.40
2018-12-27T23:42:46.471Z,5.40
2018-12-27T23:45:35.081Z,5.40
2018-12-27T23:48:24.376Z,5.40
2018-12-27T23:51:13.918Z,5.40
2018-12-27T23:54:02.857Z,5.40
2018-12-27T23:56:51.687Z,5.40
2018-12-27T23:59:40.426Z,5.40
